Terminal Aerodrome Forecast
Issued by NWS Sterling, VA

Current Version | Previous Version | Graphics & Text | Print | Product List | Glossary On
Versions: 1 2 3 4 5 6 7 8 9 10 11 12 13 14 15 16 17 18 19 20 21 22 23 24 25 26 27 28 29 30 31
000
FTUS41 KLWX 161456 AAA
TAFIAD
TAF AMD
KIAD 161456Z 1615/1718 18004KT P6SM -RA OVC050
     FM161700 30009KT P6SM -SHRA SCT025 OVC045
     FM161900 31013G21KT 6SM -SHRA BR SCT025 OVC045
     FM162100 32018G29KT P6SM OVC045
     FM170400 33009KT P6SM FEW250=

USA.gov is the U.S. government's official web portal to all federal, state and local government web resources and services.